Time,TemperatureF,DewpointF,PressureIn,WindDirection,WindDirectionDegrees,WindSpeedMPH,WindSpeedGustMPH,Humidity,HourlyPrecipIn,Conditions,Clouds,dailyrainin,SoftwareType,DateUTC
2013-06-22 00:12:00,75.1,73.0,30.02,South,186,0.0,0.0,92,0.00,,,0.00,weatherlink.com 1.10,2013-06-22 05:12:00,
2013-06-22 00:27:00,74.7,73.0,30.02,South,186,0.0,0.0,93,0.00,,,0.00,weatherlink.com 1.10,2013-06-22 05:27:00,
2013-06-22 00:42:00,74.3,72.0,30.02,South,186,0.0,0.0,93,0.00,,,0.00,weatherlink.com 1.10,2013-06-22 05:42:00,
2013-06-22 00:57:00,74.0,72.0,30.02,South,186,0.0,0.0,94,0.00,,,0.00,weatherlink.com 1.10,2013-06-22 05:57:00,
2013-06-22 01:12:00,73.8,72.0,30.01,South,186,0.0,0.0,94,0.00,,,0.00,weatherlink.com 1.10,2013-06-22 06:12:00,
2013-06-22 01:27:00,73.5,72.0,30.01,South,186,0.0,0.0,94,0.00,,,0.00,weatherlink.com 1.10,2013-06-22 06:27:00,
2013-06-22 01:42:00,73.3,72.0,30.01,South,186,0.0,0.0,94,0.00,,,0.00,weatherlink.com 1.10,2013-06-22 06:42:00,
2013-06-22 01:57:00,73.1,72.0,30.00,South,186,0.0,0.0,95,0.00,,,0.00,weatherlink.com 1.10,2013-06-22 06:57:00,
2013-06-22 02:12:00,72.9,71.0,30.00,South,186,0.0,0.0,95,0.00,,,0.00,weatherlink.com 1.10,2013-06-22 07:12:00,
2013-06-22 02:27:00,73.0,72.0,30.00,South,186,0.0,0.0,96,0.00,,,0.00,weatherlink.com 1.10,2013-06-22 07:27:00,
2013-06-22 02:42:00,72.8,72.0,30.00,South,186,0.0,0.0,96,0.00,,,0.00,weatherlink.com 1.10,2013-06-22 07:42:00,
2013-06-22 02:57:00,72.7,72.0,30.00,South,186,0.0,0.0,96,0.00,,,0.00,weatherlink.com 1.10,2013-06-22 07:57:00,
2013-06-22 03:12:00,72.7,72.0,30.00,South,186,0.0,0.0,96,0.00,,,0.00,weatherlink.com 1.10,2013-06-22 08:12:00,
2013-06-22 03:27:00,72.6,72.0,30.00,South,186,0.0,0.0,97,0.00,,,0.00,weatherlink.com 1.10,2013-06-22 08:27:00,
2013-06-22 03:42:00,72.6,72.0,30.00,South,186,0.0,0.0,97,0.00,,,0.00,weatherlink.com 1.10,2013-06-22 08:42:00,
2013-06-22 03:57:00,72.6,72.0,30.00,South,186,0.0,0.0,97,0.00,,,0.00,weatherlink.com 1.10,2013-06-22 08:57:00,
2013-06-22 04:12:00,72.6,72.0,30.00,South,186,0.0,0.0,97,0.00,,,0.00,weatherlink.com 1.10,2013-06-22 09:12:00,
2013-06-22 04:27:00,72.6,72.0,30.00,South,186,0.0,0.0,97,0.00,,,0.00,weatherlink.com 1.10,2013-06-22 09:27:00,
2013-06-22 04:42:00,72.5,72.0,30.00,South,186,0.0,0.0,97,0.00,,,0.00,weatherlink.com 1.10,2013-06-22 09:42:00,
2013-06-22 04:57:00,72.4,72.0,30.01,South,186,0.0,0.0,97,0.00,,,0.00,weatherlink.com 1.10,2013-06-22 09:57:00,
2013-06-22 05:12:00,72.1,71.0,30.01,South,186,0.0,0.0,97,0.00,,,0.00,weatherlink.com 1.10,2013-06-22 10:12:00,
2013-06-22 05:27:00,72.1,71.0,30.01,South,186,0.0,0.0,97,0.00,,,0.00,weatherlink.com 1.10,2013-06-22 10:27:00,
2013-06-22 05:42:00,72.1,71.0,30.02,South,186,0.0,0.0,97,0.00,,,0.00,weatherlink.com 1.10,2013-06-22 10:42:00,
2013-06-22 05:57:00,72.1,72.0,30.02,South,186,0.0,0.0,98,0.00,,,0.00,weatherlink.com 1.10,2013-06-22 10:57:00,
2013-06-22 06:12:00,72.0,71.0,30.02,South,186,0.0,0.0,98,0.00,,,0.00,weatherlink.com 1.10,2013-06-22 11:12:00,
2013-06-22 06:27:00,72.2,72.0,30.03,South,186,0.0,0.0,98,0.00,,,0.00,weatherlink.com 1.10,2013-06-22 11:27:00,
2013-06-22 06:42:00,72.6,72.0,30.03,South,186,0.0,0.0,98,0.00,,,0.00,weatherlink.com 1.10,2013-06-22 11:42:00,
2013-06-22 06:57:00,73.3,73.0,30.04,South,186,0.0,0.0,99,0.00,,,0.00,weatherlink.com 1.10,2013-06-22 11:57:00,
2013-06-22 07:12:00,74.7,74.0,30.03,South,186,0.0,1.0,99,0.00,,,0.00,weatherlink.com 1.10,2013-06-22 12:12:00,
2013-06-22 07:27:00,75.9,75.0,30.03,SSE,161,0.0,2.0,97,0.00,,,0.00,weatherlink.com 1.10,2013-06-22 12:27:00,
2013-06-22 07:42:00,77.3,76.0,30.03,East,101,0.0,3.0,94,0.00,,,0.00,weatherlink.com 1.10,2013-06-22 12:42:00,
2013-06-22 07:57:00,78.5,76.0,30.04,ESE,108,3.0,3.0,91,0.00,,,0.00,weatherlink.com 1.10,2013-06-22 12:57:00,
2013-06-22 08:12:00,79.8,76.0,30.04,East,98,2.0,4.0,88,0.00,,,0.00,weatherlink.com 1.10,2013-06-22 13:12:00,
2013-06-22 08:27:00,80.7,77.0,30.04,East,97,1.0,5.0,87,0.00,,,0.00,weatherlink.com 1.10,2013-06-22 13:27:00,
2013-06-22 08:42:00,82.3,77.0,30.05,ESE,111,0.0,3.0,85,0.00,,,0.00,weatherlink.com 1.10,2013-06-22 13:42:00,
2013-06-22 08:57:00,83.6,77.0,30.05,SE,137,1.0,6.0,80,0.00,,,0.00,weatherlink.com 1.10,2013-06-22 13:57:00,
2013-06-22 09:12:00,83.9,78.0,30.05,ESE,114,0.0,5.0,81,0.00,,,0.00,weatherlink.com 1.10,2013-06-22 14:12:00,
2013-06-22 09:28:00,84.9,77.0,30.05,ESE,115,3.0,5.0,77,0.00,,,0.00,weatherlink.com 1.10,2013-06-22 14:28:00,
2013-06-22 09:43:00,85.4,78.0,30.05,ENE,60,3.0,5.0,78,0.00,,,0.00,weatherlink.com 1.10,2013-06-22 14:43:00,
2013-06-22 09:58:00,85.8,77.0,30.05,ESE,109,1.0,7.0,76,0.00,,,0.00,weatherlink.com 1.10,2013-06-22 14:58:00,
2013-06-22 10:13:00,86.4,78.0,30.05,ESE,113,3.0,7.0,75,0.00,,,0.00,weatherlink.com 1.10,2013-06-22 15:13:00,
2013-06-22 10:28:00,86.8,78.0,30.05,ENE,71,3.0,7.0,74,0.00,,,0.00,weatherlink.com 1.10,2013-06-22 15:28:00,
2013-06-22 10:43:00,87.6,77.0,30.05,SSE,153,2.0,5.0,71,0.00,,,0.00,weatherlink.com 1.10,2013-06-22 15:43:00,
2013-06-22 10:58:00,88.1,78.0,30.05,ESE,112,0.0,5.0,71,0.00,,,0.00,weatherlink.com 1.10,2013-06-22 15:58:00,
2013-06-22 11:13:00,88.9,77.0,30.06,East,95,0.0,6.0,67,0.00,,,0.00,weatherlink.com 1.10,2013-06-22 16:13:00,
2013-06-22 11:28:00,89.5,76.0,30.06,ESE,112,4.0,5.0,65,0.00,,,0.00,weatherlink.com 1.10,2013-06-22 16:28:00,
2013-06-22 11:43:00,89.5,78.0,30.06,NE,55,0.0,3.0,69,0.00,,,0.00,weatherlink.com 1.10,2013-06-22 16:43:00,
2013-06-22 11:58:00,90.3,78.0,30.06,ENE,59,0.0,2.0,68,0.00,,,0.00,weatherlink.com 1.10,2013-06-22 16:58:00,
2013-06-22 12:13:00,90.1,76.0,30.06,ENE,64,1.0,4.0,63,0.00,,,0.00,weatherlink.com 1.10,2013-06-22 17:13:00,
2013-06-22 12:28:00,89.4,77.0,30.05,ENE,63,0.0,6.0,67,0.00,,,0.00,weatherlink.com 1.10,2013-06-22 17:28:00,
2013-06-22 12:43:00,91.7,78.0,30.06,NE,55,0.0,4.0,65,0.00,,,0.00,weatherlink.com 1.10,2013-06-22 17:43:00,
2013-06-22 12:58:00,90.8,76.0,30.05,ENE,69,0.0,6.0,63,0.00,,,0.00,weatherlink.com 1.10,2013-06-22 17:58:00,
2013-06-22 13:13:00,91.7,78.0,30.05,East,83,3.0,5.0,64,0.00,,,0.00,weatherlink.com 1.10,2013-06-22 18:13:00,
2013-06-22 13:28:00,91.2,75.0,30.04,SE,124,0.0,4.0,59,0.00,,,0.00,weatherlink.com 1.10,2013-06-22 18:28:00,
2013-06-22 13:43:00,91.3,76.0,30.03,SE,144,0.0,5.0,61,0.00,,,0.00,weatherlink.com 1.10,2013-06-22 18:43:00,
2013-06-22 13:58:00,92.2,78.0,30.03,ESE,107,4.0,5.0,63,0.00,,,0.00,weatherlink.com 1.10,2013-06-22 18:58:00,
2013-06-22 14:13:00,92.4,76.0,30.03,ENE,61,0.0,3.0,59,0.00,,,0.00,weatherlink.com 1.10,2013-06-22 19:13:00,
2013-06-22 14:28:00,94.2,77.0,30.02,East,89,3.0,8.0,58,0.00,,,0.00,weatherlink.com 1.10,2013-06-22 19:28:00,
2013-06-22 14:43:00,93.0,77.0,30.02,ENE,61,3.0,5.0,60,0.00,,,0.00,weatherlink.com 1.10,2013-06-22 19:43:00,
2013-06-22 14:58:00,91.3,76.0,30.01,ENE,63,0.0,4.0,62,0.00,,,0.00,weatherlink.com 1.10,2013-06-22 19:58:00,
2013-06-22 15:13:00,93.4,77.0,30.01,NE,56,2.0,4.0,59,0.00,,,0.00,weatherlink.com 1.10,2013-06-22 20:13:00,
2013-06-22 15:28:00,93.3,76.0,30.00,NNW,334,3.0,8.0,58,0.00,,,0.00,weatherlink.com 1.10,2013-06-22 20:28:00,
2013-06-22 15:43:00,93.1,73.0,29.99,NE,53,0.0,7.0,52,0.00,,,0.00,weatherlink.com 1.10,2013-06-22 20:43:00,
2013-06-22 15:58:00,95.3,76.0,29.98,NNE,16,2.0,3.0,53,0.00,,,0.00,weatherlink.com 1.10,2013-06-22 20:58:00,
2013-06-22 16:13:00,93.8,75.0,29.98,ENE,71,1.0,4.0,54,0.00,,,0.00,weatherlink.com 1.10,2013-06-22 21:13:00,
2013-06-22 16:28:00,93.1,74.0,29.98,ESE,115,4.0,5.0,54,0.00,,,0.00,weatherlink.com 1.10,2013-06-22 21:28:00,
2013-06-22 16:43:00,92.6,76.0,29.98,ENE,78,3.0,5.0,58,0.00,,,0.00,weatherlink.com 1.10,2013-06-22 21:43:00,
2013-06-22 16:58:00,92.6,75.0,29.97,ENE,74,2.0,6.0,56,0.00,,,0.00,weatherlink.com 1.10,2013-06-22 21:58:00,
2013-06-22 17:13:00,92.6,74.0,29.97,ESE,111,7.0,7.0,55,0.00,,,0.00,weatherlink.com 1.10,2013-06-22 22:13:00,
2013-06-22 17:28:00,90.9,74.0,29.97,East,96,2.0,7.0,57,0.00,,,0.00,weatherlink.com 1.10,2013-06-22 22:28:00,
2013-06-22 17:43:00,90.2,73.0,29.96,ENE,78,0.0,5.0,57,0.00,,,0.00,weatherlink.com 1.10,2013-06-22 22:43:00,
2013-06-22 17:58:00,90.4,74.0,29.96,ESE,109,4.0,4.0,58,0.00,,,0.00,weatherlink.com 1.10,2013-06-22 22:58:00,
2013-06-22 18:13:00,91.2,73.0,29.95,ESE,105,2.0,6.0,56,0.00,,,0.00,weatherlink.com 1.10,2013-06-22 23:13:00,
2013-06-22 18:28:00,90.9,73.0,29.95,SE,139,3.0,6.0,56,0.00,,,0.00,weatherlink.com 1.10,2013-06-22 23:28:00,
2013-06-22 18:43:00,88.0,77.0,29.95,East,93,6.0,11.0,70,0.00,,,0.00,weatherlink.com 1.10,2013-06-22 23:43:00,
2013-06-22 18:58:00,86.5,76.0,29.96,South,186,3.0,10.0,71,0.00,,,0.00,weatherlink.com 1.10,2013-06-22 23:58:00,
2013-06-22 19:13:00,85.7,75.0,29.96,SSE,166,6.0,9.0,71,0.00,,,0.00,weatherlink.com 1.10,2013-06-23 00:13:00,
2013-06-22 19:28:00,85.5,76.0,29.96,SE,128,3.0,8.0,72,0.00,,,0.00,weatherlink.com 1.10,2013-06-23 00:28:00,
2013-06-22 19:43:00,84.7,75.0,29.96,SE,131,3.0,7.0,73,0.00,,,0.00,weatherlink.com 1.10,2013-06-23 00:43:00,
2013-06-22 19:58:00,83.7,75.0,29.96,SE,126,2.0,5.0,75,0.00,,,0.00,weatherlink.com 1.10,2013-06-23 00:58:00,
2013-06-22 20:13:00,83.2,75.0,29.96,South,173,3.0,4.0,75,0.00,,,0.00,weatherlink.com 1.10,2013-06-23 01:13:00,
2013-06-22 20:28:00,82.3,74.0,29.96,SSE,167,3.0,4.0,76,0.00,,,0.00,weatherlink.com 1.10,2013-06-23 01:28:00,
2013-06-22 20:43:00,81.6,73.0,29.96,SE,142,2.0,5.0,76,0.00,,,0.00,weatherlink.com 1.10,2013-06-23 01:43:00,
2013-06-22 20:58:00,81.2,73.0,29.96,SSE,161,1.0,3.0,77,0.00,,,0.00,weatherlink.com 1.10,2013-06-23 01:58:00,
2013-06-22 21:14:00,80.6,73.0,29.96,SSE,161,0.0,2.0,78,0.00,,,0.00,weatherlink.com 1.10,2013-06-23 02:14:00,
2013-06-22 21:29:00,80.1,73.0,29.97,SSE,161,0.0,0.0,79,0.00,,,0.00,weatherlink.com 1.10,2013-06-23 02:29:00,
2013-06-22 21:44:00,79.3,73.0,29.97,SSE,161,0.0,1.0,81,0.00,,,0.00,weatherlink.com 1.10,2013-06-23 02:44:00,
2013-06-22 21:59:00,78.8,73.0,29.97,SSE,161,0.0,0.0,83,0.00,,,0.00,weatherlink.com 1.10,2013-06-23 02:59:00,
2013-06-22 22:14:00,78.4,73.0,29.98,SSE,161,0.0,0.0,84,0.00,,,0.00,weatherlink.com 1.10,2013-06-23 03:14:00,
2013-06-22 22:29:00,78.0,73.0,29.98,SSE,161,0.0,1.0,84,0.00,,,0.00,weatherlink.com 1.10,2013-06-23 03:29:00,
2013-06-22 22:44:00,77.7,73.0,29.99,SSE,161,0.0,1.0,85,0.00,,,0.00,weatherlink.com 1.10,2013-06-23 03:44:00,
2013-06-22 22:59:00,77.3,73.0,29.99,SSE,161,0.0,0.0,86,0.00,,,0.00,weatherlink.com 1.10,2013-06-23 03:59:00,
2013-06-22 23:14:00,76.7,73.0,29.99,SSE,161,0.0,0.0,87,0.00,,,0.00,weatherlink.com 1.10,2013-06-23 04:14:00,
2013-06-22 23:29:00,76.1,73.0,30.00,SSE,161,0.0,0.0,89,0.00,,,0.00,weatherlink.com 1.10,2013-06-23 04:29:00,
2013-06-22 23:44:00,75.6,73.0,30.00,SSE,161,0.0,0.0,90,0.00,,,0.00,weatherlink.com 1.10,2013-06-23 04:44:00,
2013-06-22 23:59:00,75.3,73.0,30.00,SSE,161,0.0,0.0,91,0.00,,,0.00,weatherlink.com 1.10,2013-06-23 04:59:00,